Time;durP1;ratioP1;P1;durP2;ratioP2;P2;SDS_P1;SDS_P2;PMS_P1;PMS_P2;Temp;Humidity;BMP_temperature;BMP_pressure;BME280_temperature;BME280_humidity;BME280_pressure;Samples;Min_cycle;Max_cycle;Signal;HPM_P1;HPM_P2
2021/12/24 00:01:02;;;;;;;256.27;75.95;;;5.60;99.90;;;;;;5121688;27;20079;-71
2021/12/24 00:03:28;;;;;;;260.45;75.95;;;5.60;99.90;;;;;;5124641;27;20031;-71
2021/12/24 00:05:53;;;;;;;244.98;75.57;;;5.70;99.90;;;;;;5126914;27;20131;-71
2021/12/24 00:08:19;;;;;;;237.82;73.78;;;5.80;99.90;;;;;;5156102;27;20070;-71
2021/12/24 00:10:48;;;;;;;223.15;73.30;;;5.80;99.90;;;;;;5129128;27;20105;-71
2021/12/24 00:13:16;;;;;;;229.98;72.55;;;5.80;99.90;;;;;;5122090;27;20097;-71
2021/12/24 00:37:19;;;;;;;268.80;74.15;;;6.10;99.90;;;;;;5123434;27;20051;-71
2021/12/24 00:40:09;;;;;;;296.63;75.30;;;6.10;99.90;;;;;;5118071;27;20075;-71
2021/12/24 00:42:33;;;;;;;388.05;84.43;;;6.10;99.90;;;;;;5125433;27;20073;-71
2021/12/24 00:44:58;;;;;;;394.47;83.40;;;6.10;99.90;;;;;;5119129;27;20046;-71
2021/12/24 00:47:25;;;;;;;293.15;74.47;;;6.00;99.90;;;;;;5126155;27;20304;-71
2021/12/24 00:49:54;;;;;;;260.63;70.00;;;6.00;99.90;;;;;;5125238;27;20482;-71
2021/12/24 00:52:46;;;;;;;201.98;64.68;;;5.90;99.90;;;;;;5147144;27;20043;-71
2021/12/24 00:55:12;;;;;;;313.70;74.30;;;5.80;99.90;;;;;;5118314;27;20047;-71
2021/12/24 00:58:00;;;;;;;336.95;73.78;;;5.80;99.90;;;;;;5123724;27;20483;-72
2021/12/24 01:00:31;;;;;;;334.85;76.63;;;5.70;99.90;;;;;;5121600;27;20035;-71
2021/12/24 01:02:58;;;;;;;254.80;67.53;;;5.70;99.90;;;;;;5122937;27;20050;-71
2021/12/24 01:05:26;;;;;;;234.10;67.55;;;5.60;99.90;;;;;;5127684;27;20073;-71
2021/12/24 01:07:52;;;;;;;;;;;5.60;99.90;;;;;;5109769;27;20089;-71
2021/12/24 01:10:40;;;;;;;216.95;65.20;;;5.60;99.90;;;;;;5149066;27;19919;-71
2021/12/24 01:13:06;;;;;;;269.60;71.60;;;5.60;99.90;;;;;;5117797;27;20054;-71
2021/12/24 01:15:34;;;;;;;229.15;67.93;;;5.60;99.90;;;;;;5117224;27;20619;-71
2021/12/24 01:18:09;;;;;;;280.88;73.35;;;5.60;99.90;;;;;;5123654;27;20677;-71
2021/12/24 01:25:43;;;;;;;213.98;65.68;;;5.60;99.90;;;;;;5126613;27;20134;-71
2021/12/24 01:39:08;;;;;;;274.13;69.93;;;5.70;99.90;;;;;;5084832;27;20070;-71
2021/12/24 01:44:26;;;;;;;270.92;70.38;;;5.80;99.90;;;;;;5112840;27;20039;-71
2021/12/24 01:46:51;;;;;;;220.75;65.93;;;5.90;99.90;;;;;;5121981;27;20566;-71
2021/12/24 01:49:17;;;;;;;217.93;64.75;;;6.00;99.90;;;;;;5151406;27;20130;-71
2021/12/24 01:51:42;;;;;;;260.48;69.55;;;6.00;99.90;;;;;;5151995;27;20082;-71
2021/12/24 01:54:10;;;;;;;216.07;63.80;;;6.00;99.90;;;;;;5124871;27;20035;-71
2021/12/24 01:56:36;;;;;;;208.18;62.95;;;6.10;99.90;;;;;;5124551;27;20043;-71
2021/12/24 01:59:02;;;;;;;192.48;61.35;;;6.10;99.90;;;;;;5118401;27;20050;-71
2021/12/24 02:01:28;;;;;;;175.95;59.95;;;6.20;99.90;;;;;;5116677;27;20039;-71
2021/12/24 02:03:54;;;;;;;190.00;63.70;;;6.20;99.90;;;;;;5119817;27;20521;-71
2021/12/24 02:06:20;;;;;;;163.48;59.85;;;6.30;99.90;;;;;;5116613;27;20075;-71
2021/12/24 02:08:46;;;;;;;174.35;63.60;;;6.30;99.90;;;;;;5124797;27;20046;-71
2021/12/24 02:11:12;;;;;;;148.02;59.63;;;6.40;99.90;;;;;;5116272;27;20047;-71
2021/12/24 02:13:39;;;;;;;150.82;57.78;;;6.50;99.90;;;;;;5115150;27;20444;-71
2021/12/24 02:16:21;;;;;;;144.55;57.22;;;6.60;99.90;;;;;;5139440;27;20096;-71
2021/12/24 02:29:59;;;;;;;100.60;48.97;;;6.90;99.90;;;;;;5108025;28;20051;-71
2021/12/24 02:32:24;;;;;;;106.82;48.55;;;7.00;99.90;;;;;;5122219;27;20130;-71
2021/12/24 02:34:50;;;;;;;96.30;46.47;;;7.00;99.90;;;;;;5118549;28;20066;-71
2021/12/24 02:37:16;;;;;;;92.32;46.97;;;7.10;99.90;;;;;;5118972;28;20103;-71
2021/12/24 02:39:42;;;;;;;87.78;43.33;;;7.20;99.90;;;;;;5117719;28;20043;-71
2021/12/24 02:42:13;;;;;;;92.05;44.22;;;7.20;99.90;;;;;;5120724;27;20046;-71
2021/12/24 02:44:39;;;;;;;78.03;40.10;;;7.30;99.90;;;;;;5124022;27;20040;-71
2021/12/24 02:47:12;;;;;;;78.75;40.10;;;7.30;99.90;;;;;;5119319;27;20091;-71
2021/12/24 02:55:04;;;;;;;82.00;41.17;;;7.40;99.90;;;;;;5111714;28;20051;-71
2021/12/24 02:57:31;;;;;;;95.38;41.42;;;7.50;99.90;;;;;;5119632;27;20045;-71
2021/12/24 03:00:06;;;;;;;85.05;38.63;;;7.50;99.90;;;;;;5127350;27;20097;-71
2021/12/24 03:02:33;;;;;;;81.53;39.33;;;7.50;99.90;;;;;;5125294;27;20135;-71
2021/12/24 03:05:00;;;;;;;78.25;36.13;;;7.50;99.90;;;;;;5123173;27;20142;-71
2021/12/24 03:07:25;;;;;;;75.25;35.50;;;7.50;99.90;;;;;;5122782;27;20486;-71
2021/12/24 03:09:51;;;;;;;66.18;33.05;;;7.60;99.90;;;;;;5126171;27;20074;-71
2021/12/24 03:12:17;;;;;;;71.60;33.53;;;7.60;99.90;;;;;;5124853;27;20143;-71
2021/12/24 03:14:43;;;;;;;68.93;34.15;;;7.60;99.90;;;;;;5122087;27;20063;-71
2021/12/24 03:17:13;;;;;;;67.03;32.05;;;7.60;99.90;;;;;;5125497;27;20067;-71
2021/12/24 03:19:39;;;;;;;66.60;32.13;;;7.60;99.90;;;;;;5117838;27;20031;-72
2021/12/24 03:22:27;;;;;;;75.80;33.67;;;7.60;99.90;;;;;;5121402;27;20096;-71
2021/12/24 03:24:53;;;;;;;63.95;31.52;;;7.70;99.90;;;;;;5115470;27;20043;-71
2021/12/24 03:27:19;;;;;;;60.83;30.23;;;7.60;99.90;;;;;;5120853;27;20295;-71
2021/12/24 03:29:44;;;;;;;65.20;30.08;;;7.70;99.90;;;;;;5123802;27;20043;-72
2021/12/24 03:32:10;;;;;;;63.30;29.88;;;7.70;99.90;;;;;;5114779;27;20047;-71
2021/12/24 03:34:36;;;;;;;60.97;28.92;;;7.70;99.90;;;;;;5118045;27;20035;-71
2021/12/24 03:37:04;;;;;;;61.60;28.45;;;7.70;99.90;;;;;;5142286;27;20105;-71
2021/12/24 03:39:29;;;;;;;54.45;26.77;;;7.70;99.90;;;;;;5128617;27;20043;-71
2021/12/24 03:41:55;;;;;;;51.17;26.15;;;7.70;99.90;;;;;;5122577;27;20493;-71
2021/12/24 03:44:29;;;;;;;53.40;26.83;;;7.70;99.90;;;;;;5126295;27;20031;-71
2021/12/24 03:47:02;;;;;;;56.40;27.05;;;7.70;99.90;;;;;;5119395;27;20071;-71
2021/12/24 03:52:04;;;;;;;48.63;24.92;;;7.70;99.90;;;;;;5116188;27;20573;-71
2021/12/24 03:57:15;;;;;;;50.10;23.92;;;7.80;99.90;;;;;;5110649;27;20051;-71
2021/12/24 03:59:41;;;;;;;49.08;24.15;;;7.80;99.90;;;;;;5112927;27;20039;-71
2021/12/24 04:02:07;;;;;;;47.50;23.23;;;7.80;99.90;;;;;;5124954;27;20043;-71
2021/12/24 04:04:32;;;;;;;43.65;22.67;;;7.80;99.90;;;;;;5113867;27;20096;-71
2021/12/24 04:06:58;;;;;;;44.58;23.55;;;7.90;99.90;;;;;;5150481;27;20042;-71
2021/12/24 04:09:27;;;;;;;50.67;24.13;;;7.80;99.90;;;;;;5120317;27;20393;-71
2021/12/24 04:11:52;;;;;;;44.85;23.75;;;7.80;99.90;;;;;;5127584;27;20039;-71
2021/12/24 04:14:18;;;;;;;45.70;23.50;;;7.90;99.90;;;;;;5122351;27;20367;-72
2021/12/24 04:16:43;;;;;;;41.58;22.60;;;7.90;99.90;;;;;;5125501;27;20035;-72
2021/12/24 04:24:51;;;;;;;62.63;28.48;;;7.90;99.90;;;;;;5148847;27;20043;-72
2021/12/24 04:27:17;;;;;;;65.60;29.85;;;8.00;99.90;;;;;;5125469;27;20138;-71
2021/12/24 04:29:43;;;;;;;68.32;31.00;;;8.00;99.90;;;;;;5120060;27;20043;-71
2021/12/24 04:32:13;;;;;;;69.80;30.40;;;8.00;99.90;;;;;;5126357;27;20062;-71
2021/12/24 04:34:46;;;;;;;70.85;31.42;;;8.00;99.90;;;;;;5124442;27;20699;-72
2021/12/24 04:37:56;;;;;;;75.53;32.80;;;8.10;99.90;;;;;;5124955;27;20042;-71
2021/12/24 04:51:30;;;;;;;74.70;36.05;;;8.10;99.90;;;;;;5114677;27;20545;-71
2021/12/24 05:04:34;;;;;;;80.32;35.78;;;8.10;99.90;;;;;;5118555;27;20043;-71
2021/12/24 05:07:22;;;;;;;80.47;37.78;;;8.10;99.90;;;;;;5123451;27;20050;-71
2021/12/24 05:09:47;;;;;;;84.05;37.28;;;8.20;99.90;;;;;;5123180;27;20039;-71
2021/12/24 05:12:13;;;;;;;80.10;37.00;;;8.20;99.90;;;;;;5122142;27;20096;-71
2021/12/24 05:14:39;;;;;;;78.70;36.55;;;8.20;99.90;;;;;;5115413;27;20117;-71
2021/12/24 05:22:33;;;;;;;84.53;37.83;;;8.20;99.90;;;;;;5121751;27;20044;-71
2021/12/24 05:25:00;;;;;;;107.25;40.38;;;8.20;99.90;;;;;;5119321;27;20112;-72
2021/12/24 05:27:25;;;;;;;93.38;39.50;;;8.20;99.90;;;;;;5124049;27;20046;-71
2021/12/24 05:29:52;;;;;;;111.90;42.28;;;8.20;99.90;;;;;;5112374;27;20043;-71
2021/12/24 05:32:18;;;;;;;102.53;39.87;;;8.20;99.90;;;;;;5123528;27;20391;-71
2021/12/24 05:34:43;;;;;;;100.55;40.80;;;8.20;99.90;;;;;;5112109;27;20334;-71
2021/12/24 05:37:09;;;;;;;85.20;38.13;;;8.20;99.90;;;;;;5126300;27;20035;-71
2021/12/24 05:39:35;;;;;;;80.97;37.65;;;8.20;99.90;;;;;;5115816;27;20042;-71
2021/12/24 05:42:02;;;;;;;93.43;39.92;;;8.20;99.90;;;;;;5117470;27;20069;-71
2021/12/24 05:44:27;;;;;;;78.38;36.38;;;8.30;99.90;;;;;;5121465;27;20067;-71
2021/12/24 05:46:53;;;;;;;83.88;36.25;;;8.30;99.90;;;;;;5125579;27;20074;-71
2021/12/24 05:49:19;;;;;;;83.13;38.03;;;8.30;99.90;;;;;;5121282;27;20043;-71
2021/12/24 05:51:45;;;;;;;85.97;37.55;;;8.30;99.90;;;;;;5114045;27;20048;-71
2021/12/24 05:54:11;;;;;;;86.97;36.92;;;8.30;99.90;;;;;;5120710;27;20096;-70
2021/12/24 05:56:37;;;;;;;80.75;37.08;;;8.30;99.90;;;;;;5117202;27;20084;-71
2021/12/24 05:59:03;;;;;;;84.28;35.75;;;8.30;99.90;;;;;;5118051;27;20436;-71
2021/12/24 06:01:29;;;;;;;80.40;37.05;;;8.30;99.90;;;;;;5125565;27;20065;-71
2021/12/24 06:03:54;;;;;;;86.22;38.53;;;8.30;99.90;;;;;;5118798;27;20731;-71
2021/12/24 06:06:20;;;;;;;79.15;37.30;;;8.30;99.90;;;;;;5144036;27;20462;-71
2021/12/24 06:08:46;;;;;;;92.38;39.20;;;8.30;99.90;;;;;;5117338;27;20127;-71
2021/12/24 06:11:11;;;;;;;86.28;37.92;;;8.20;99.90;;;;;;5148332;27;20502;-71
2021/12/24 06:13:37;;;;;;;88.97;38.13;;;8.30;99.90;;;;;;5124286;27;20093;-70
2021/12/24 06:16:05;;;;;;;77.10;35.40;;;8.30;99.90;;;;;;5156999;27;20043;-72
2021/12/24 06:18:31;;;;;;;75.38;36.55;;;8.30;99.90;;;;;;5112622;27;20039;-71
2021/12/24 06:21:00;;;;;;;81.55;37.55;;;8.30;99.90;;;;;;5124891;27;20542;-71
2021/12/24 06:23:27;;;;;;;79.03;36.08;;;8.30;99.90;;;;;;5112848;28;20031;-71
2021/12/24 06:25:55;;;;;;;66.78;33.72;;;8.30;99.90;;;;;;5110651;28;20114;-71
2021/12/24 06:28:22;;;;;;;69.13;34.78;;;8.30;99.90;;;;;;5125226;28;20039;-72
2021/12/24 06:30:48;;;;;;;72.28;35.10;;;8.30;99.90;;;;;;5118265;27;20474;-71
2021/12/24 06:33:13;;;;;;;67.30;33.28;;;8.30;99.90;;;;;;5113922;27;20115;-71
2021/12/24 06:35:39;;;;;;;68.00;33.17;;;8.30;99.90;;;;;;5115653;27;20256;-71
2021/12/24 06:38:06;;;;;;;63.72;33.72;;;8.40;99.90;;;;;;5117170;27;20794;-71
2021/12/24 06:40:32;;;;;;;65.93;33.53;;;8.40;99.90;;;;;;5126959;27;20054;-71
2021/12/24 06:42:58;;;;;;;59.83;32.67;;;8.40;99.90;;;;;;5131715;27;20409;-71
2021/12/24 06:45:24;;;;;;;63.88;32.78;;;8.40;99.90;;;;;;5126358;27;20054;-72
2021/12/24 06:47:52;;;;;;;63.55;32.10;;;8.30;99.90;;;;;;5126408;27;20035;-72
2021/12/24 06:50:18;;;;;;;58.72;30.98;;;8.40;99.90;;;;;;5120936;27;20557;-72
2021/12/24 06:52:44;;;;;;;58.38;31.63;;;8.30;99.90;;;;;;5125769;27;20043;-71
2021/12/24 06:55:10;;;;;;;69.55;32.42;;;8.40;99.90;;;;;;5122078;27;20379;-72
2021/12/24 06:57:38;;;;;;;64.13;32.70;;;8.30;99.90;;;;;;5119586;27;20055;-71
2021/12/24 07:00:05;;;;;;;63.97;32.05;;;8.30;99.90;;;;;;5112795;27;20528;-74
2021/12/24 07:02:31;;;;;;;65.07;32.47;;;8.30;99.90;;;;;;5119942;27;20060;-72
2021/12/24 07:04:56;;;;;;;62.28;30.55;;;8.30;99.90;;;;;;5138206;27;20052;-72
2021/12/24 07:07:22;;;;;;;55.55;30.20;;;8.40;99.90;;;;;;5124168;27;20043;-72
2021/12/24 07:09:47;;;;;;;56.63;29.50;;;8.40;99.90;;;;;;5111814;27;20043;-72
2021/12/24 07:12:13;;;;;;;61.55;30.23;;;8.40;99.90;;;;;;5151775;27;20035;-72
2021/12/24 07:14:41;;;;;;;55.95;29.17;;;8.40;99.90;;;;;;5126947;27;20046;-72
2021/12/24 07:17:07;;;;;;;52.55;28.38;;;8.30;99.90;;;;;;5156743;27;20119;-72
2021/12/24 07:19:33;;;;;;;55.33;27.80;;;8.40;99.90;;;;;;5125781;27;20092;-72
2021/12/24 07:21:59;;;;;;;52.60;27.02;;;8.40;99.90;;;;;;5126676;27;20474;-72
2021/12/24 07:24:25;;;;;;;47.88;25.05;;;8.40;99.90;;;;;;5113479;27;20054;-72
2021/12/24 07:26:50;;;;;;;50.58;26.00;;;8.40;99.90;;;;;;5124394;27;20035;-72
2021/12/24 07:29:16;;;;;;;51.08;25.85;;;8.30;99.90;;;;;;5120382;27;20131;-72
2021/12/24 07:31:42;;;;;;;58.75;27.40;;;8.30;99.90;;;;;;5157411;27;20466;-72
2021/12/24 07:34:07;;;;;;;42.85;22.73;;;8.30;99.90;;;;;;5124849;27;20047;-72
2021/12/24 07:36:33;;;;;;;49.65;25.45;;;8.30;99.90;;;;;;5121732;27;20042;-72
2021/12/24 07:38:58;;;;;;;44.17;23.25;;;8.30;99.90;;;;;;5123332;27;20049;-72
2021/12/24 07:41:25;;;;;;;50.00;23.15;;;8.30;99.90;;;;;;5130366;27;20051;-72
2021/12/24 07:43:51;;;;;;;42.00;22.60;;;8.30;99.90;;;;;;5123338;27;20050;-71
2021/12/24 07:46:17;;;;;;;40.35;21.60;;;8.30;99.90;;;;;;5128774;27;20046;-72
2021/12/24 07:48:49;;;;;;;41.83;21.33;;;8.30;99.90;;;;;;5124590;27;20031;-72
2021/12/24 07:54:04;;;;;;;46.33;21.33;;;8.30;99.90;;;;;;5083023;27;20521;-72
2021/12/24 07:56:31;;;;;;;41.03;20.33;;;8.30;99.90;;;;;;5137315;27;20126;-72
2021/12/24 07:58:58;;;;;;;39.83;19.40;;;8.30;99.90;;;;;;5120091;27;20081;-72
2021/12/24 08:01:25;;;;;;;45.35;20.83;;;8.30;99.90;;;;;;5128157;27;20490;-71
2021/12/24 08:03:52;;;;;;;38.28;20.23;;;8.30;99.90;;;;;;5127650;27;20134;-72
2021/12/24 08:06:19;;;;;;;43.20;21.15;;;8.30;99.90;;;;;;5115058;27;20048;-72
2021/12/24 08:08:45;;;;;;;44.80;20.88;;;8.30;99.90;;;;;;5116518;27;20039;-72
2021/12/24 08:11:11;;;;;;;44.45;20.42;;;8.20;99.90;;;;;;5139619;27;20054;-72
2021/12/24 08:13:36;;;;;;;41.75;20.58;;;8.20;99.90;;;;;;5148275;27;20043;-72
2021/12/24 08:16:02;;;;;;;43.13;20.42;;;8.20;99.90;;;;;;5125539;27;20104;-72
2021/12/24 08:18:28;;;;;;;41.03;18.23;;;8.20;99.90;;;;;;5123876;27;20196;-72
2021/12/24 08:20:53;;;;;;;38.80;19.92;;;8.20;99.90;;;;;;5124284;27;20047;-72
2021/12/24 08:23:19;;;;;;;40.08;19.05;;;8.30;99.90;;;;;;5123718;27;20053;-72
2021/12/24 08:25:45;;;;;;;42.20;18.83;;;8.20;99.90;;;;;;5111663;27;20049;-72
2021/12/24 08:28:10;;;;;;;36.67;17.15;;;8.20;99.90;;;;;;5113279;27;20043;-71
2021/12/24 08:30:36;;;;;;;41.85;18.52;;;8.20;99.90;;;;;;5163110;27;20031;-73
2021/12/24 08:33:02;;;;;;;38.72;17.17;;;8.20;99.90;;;;;;5123854;27;20095;-72
2021/12/24 08:35:28;;;;;;;48.97;19.23;;;8.20;99.90;;;;;;5127053;27;20503;-72
2021/12/24 08:37:55;;;;;;;38.38;17.38;;;8.30;99.90;;;;;;5123480;27;20452;-73
2021/12/24 08:40:20;;;;;;;46.33;17.55;;;8.20;99.90;;;;;;5123803;27;20092;-73
2021/12/24 08:42:46;;;;;;;43.40;17.77;;;8.20;99.90;;;;;;5140045;27;20039;-73
2021/12/24 08:45:12;;;;;;;40.75;17.88;;;8.20;99.90;;;;;;5110270;28;20043;-73
2021/12/24 08:47:39;;;;;;;42.70;18.13;;;8.20;99.90;;;;;;5142368;27;20104;-72
2021/12/24 08:50:07;;;;;;;43.25;18.05;;;8.20;99.90;;;;;;5143183;27;20043;-72
2021/12/24 08:52:33;;;;;;;40.45;17.65;;;8.30;99.90;;;;;;5143107;27;20090;-71
2021/12/24 08:54:59;;;;;;;43.17;18.02;;;8.30;99.90;;;;;;5122734;27;20350;-71
2021/12/24 08:57:24;;;;;;;36.10;17.63;;;8.20;99.90;;;;;;5116537;27;20043;-72
2021/12/24 08:59:50;;;;;;;45.17;18.05;;;8.30;99.90;;;;;;5108574;27;20035;-72
2021/12/24 09:02:17;;;;;;;36.97;17.35;;;8.20;99.90;;;;;;5144134;27;20062;-70
2021/12/24 09:04:42;;;;;;;33.05;17.02;;;8.30;99.90;;;;;;5142458;27;20035;-71
2021/12/24 09:07:08;;;;;;;31.15;16.27;;;8.30;99.90;;;;;;5119887;27;20047;-73
2021/12/24 09:09:33;;;;;;;33.83;15.65;;;8.30;99.90;;;;;;5112261;27;20046;-73
2021/12/24 09:11:59;;;;;;;33.70;16.70;;;8.30;99.90;;;;;;5127951;27;20554;-73
2021/12/24 09:14:25;;;;;;;37.85;16.63;;;8.30;99.90;;;;;;5123508;27;20042;-74
2021/12/24 09:16:51;;;;;;;41.92;17.23;;;8.30;99.90;;;;;;5127615;27;20043;-74
2021/12/24 09:19:22;;;;;;;37.75;17.42;;;8.30;99.90;;;;;;5127223;27;20187;-74
2021/12/24 09:21:48;;;;;;;36.72;17.92;;;8.30;99.90;;;;;;5125498;27;20193;-73
2021/12/24 09:24:16;;;;;;;39.30;17.52;;;8.30;99.90;;;;;;5127787;27;20035;-73
2021/12/24 09:26:42;;;;;;;44.30;18.05;;;8.30;99.90;;;;;;5122363;27;20574;-73
2021/12/24 09:29:09;;;;;;;38.72;16.35;;;8.30;99.90;;;;;;5123390;27;20086;-73
2021/12/24 09:31:35;;;;;;;41.15;16.33;;;8.30;99.90;;;;;;5110978;27;20444;-70
2021/12/24 09:34:01;;;;;;;47.83;17.70;;;8.30;99.90;;;;;;5125076;27;20035;-71
2021/12/24 09:36:28;;;;;;;40.05;16.65;;;8.30;99.90;;;;;;5127337;27;20054;-71
2021/12/24 09:38:57;;;;;;;49.35;17.02;;;8.20;99.90;;;;;;5127083;27;20034;-71
2021/12/24 09:41:24;;;;;;;41.78;16.65;;;8.30;99.90;;;;;;5123601;27;20096;-71
2021/12/24 09:43:50;;;;;;;41.20;16.30;;;8.30;99.90;;;;;;5121589;27;20050;-70
2021/12/24 09:46:16;;;;;;;39.78;15.18;;;8.20;99.90;;;;;;5120566;27;20122;-71
2021/12/24 09:48:41;;;;;;;39.80;15.57;;;8.30;99.90;;;;;;5120512;27;20130;-71
2021/12/24 09:51:08;;;;;;;46.92;16.00;;;8.30;99.90;;;;;;5119215;27;20043;-71
2021/12/24 09:53:36;;;;;;;41.85;15.65;;;8.30;99.90;;;;;;5116118;27;20043;-71
2021/12/24 09:56:05;;;;;;;40.63;15.32;;;8.30;99.90;;;;;;5106442;28;20052;-71
2021/12/24 09:58:32;;;;;;;41.13;13.98;;;8.30;99.90;;;;;;5116227;27;20039;-73
2021/12/24 10:00:57;;;;;;;30.60;13.32;;;8.40;99.90;;;;;;5127629;27;20043;-73
2021/12/24 10:03:31;;;;;;;39.70;13.38;;;8.40;99.90;;;;;;5125916;27;20027;-71
2021/12/24 10:05:57;;;;;;;36.58;12.75;;;8.40;99.90;;;;;;5126846;27;20122;-72
2021/12/24 10:08:24;;;;;;;26.55;11.57;;;8.40;99.90;;;;;;5120973;27;20122;-77
2021/12/24 10:10:59;;;;;;;30.85;10.70;;;8.50;99.90;;;;;;5113007;27;20522;-76
2021/12/24 10:13:28;;;;;;;36.08;12.30;;;8.50;99.90;;;;;;5115971;27;20050;-73
2021/12/24 10:16:02;;;;;;;29.08;11.55;;;8.50;99.90;;;;;;5127590;27;20043;-72
2021/12/24 10:18:42;;;;;;;32.30;11.43;;;8.50;99.90;;;;;;5111530;27;20491;-72
2021/12/24 10:21:09;;;;;;;26.77;11.18;;;8.50;99.90;;;;;;5111446;28;20055;-72
2021/12/24 10:23:48;;;;;;;28.92;10.90;;;8.50;99.90;;;;;;5107285;28;20055;-74
2021/12/24 10:26:39;;;;;;;29.52;11.68;;;8.50;99.90;;;;;;5125943;28;20047;-72
2021/12/24 10:29:11;;;;;;;25.98;10.77;;;8.50;99.90;;;;;;5106754;28;20051;-72
2021/12/24 10:31:43;;;;;;;28.05;10.63;;;8.50;99.90;;;;;;5110815;28;20048;-72
2021/12/24 10:34:26;;;;;;;29.48;11.27;;;8.50;99.90;;;;;;5111664;28;20042;-72
2021/12/24 10:36:56;;;;;;;25.77;10.13;;;8.50;99.90;;;;;;5114368;28;20056;-72
2021/12/24 10:39:43;;;;;;;30.10;10.75;;;8.50;99.90;;;;;;5105776;28;20043;-71
2021/12/24 10:42:15;;;;;;;26.63;10.80;;;8.50;99.90;;;;;;5115889;28;20526;-72
2021/12/24 10:44:43;;;;;;;28.75;11.02;;;8.50;99.90;;;;;;5126627;28;20100;-73
2021/12/24 10:47:21;;;;;;;42.25;11.70;;;8.50;99.90;;;;;;5113863;27;20043;-72
2021/12/24 10:50:11;;;;;;;;;;;8.50;99.90;;;;;;5117619;27;20130;-72
2021/12/24 10:55:43;;;;;;;30.70;10.63;;;8.50;99.90;;;;;;5123419;27;20039;-72
2021/12/24 10:58:18;;;;;;;28.52;10.80;;;8.60;99.90;;;;;;5116766;28;20074;-71
2021/12/24 11:00:48;;;;;;;25.73;10.57;;;8.60;99.90;;;;;;5139215;27;20085;-72
2021/12/24 11:03:19;;;;;;;24.70;10.07;;;8.60;99.90;;;;;;5111576;28;20039;-71
2021/12/24 11:05:48;;;;;;;35.25;11.07;;;8.60;99.90;;;;;;5138578;27;20038;-72
2021/12/24 11:08:19;;;;;;;34.70;11.93;;;8.60;99.90;;;;;;5113132;27;20038;-72
2021/12/24 11:10:50;;;;;;;27.00;11.00;;;8.60;99.90;;;;;;5112882;28;20077;-72
2021/12/24 11:13:18;;;;;;;36.30;12.48;;;8.60;99.90;;;;;;5120089;28;20078;-74
2021/12/24 11:15:47;;;;;;;28.98;12.20;;;8.60;99.90;;;;;;5105697;28;20089;-73
2021/12/24 11:18:28;;;;;;;27.70;12.35;;;8.70;99.90;;;;;;5146264;27;20051;-72
2021/12/24 11:21:08;;;;;;;30.15;12.88;;;8.70;99.90;;;;;;5157897;27;20047;-73
2021/12/24 11:23:37;;;;;;;30.13;12.02;;;8.70;99.90;;;;;;5120117;27;20497;-73
2021/12/24 11:26:12;;;;;;;31.25;12.65;;;8.70;99.90;;;;;;5130283;27;20540;-73
2021/12/24 11:28:39;;;;;;;30.92;11.68;;;8.70;99.90;;;;;;5127306;27;20107;-74
2021/12/24 11:31:10;;;;;;;30.63;11.73;;;8.70;99.90;;;;;;5128117;27;20055;-73
2021/12/24 11:33:38;;;;;;;32.38;13.13;;;8.70;99.90;;;;;;5129273;27;20035;-73
2021/12/24 11:36:07;;;;;;;28.45;12.60;;;8.70;99.90;;;;;;5129414;27;20556;-75
2021/12/24 11:38:36;;;;;;;30.70;12.07;;;8.70;99.90;;;;;;5119576;27;20059;-73
2021/12/24 11:41:03;;;;;;;34.47;12.57;;;8.70;99.90;;;;;;5128227;27;20090;-75
2021/12/24 11:43:31;;;;;;;30.02;12.20;;;8.60;99.90;;;;;;5157860;27;20050;-74
2021/12/24 11:46:03;;;;;;;33.42;13.25;;;8.60;99.90;;;;;;5128050;27;20071;-75
2021/12/24 11:48:31;;;;;;;32.15;12.07;;;8.70;99.90;;;;;;5128295;27;20039;-75
2021/12/24 11:50:59;;;;;;;3.10;1.60;;;8.70;99.90;;;;;;5126985;27;20062;-74
2021/12/24 11:53:26;;;;;;;2.05;1.50;;;8.50;99.90;;;;;;5128090;27;20110;-75
2021/12/24 11:55:51;;;;;;;2.75;2.00;;;8.10;99.90;;;;;;5113252;27;20107;-72
2021/12/24 11:58:20;;;;;;;2.90;2.10;;;7.80;99.90;;;;;;5112307;27;20044;-73
2021/12/24 12:00:52;;;;;;;2.72;1.90;;;7.60;99.90;;;;;;5110268;27;20495;-74
2021/12/24 12:03:41;;;;;;;2.90;2.15;;;7.40;99.90;;;;;;5110283;27;20547;-74
2021/12/24 12:06:24;;;;;;;3.65;2.80;;;7.30;99.90;;;;;;5135962;27;20054;-72
2021/12/24 12:08:55;;;;;;;4.13;2.67;;;7.20;99.90;;;;;;5127566;27;20092;-71
2021/12/24 12:11:24;;;;;;;2.90;2.28;;;7.10;99.90;;;;;;5146726;27;20497;-70
2021/12/24 12:14:15;;;;;;;3.28;2.80;;;7.10;99.90;;;;;;5108732;28;20040;-73
2021/12/24 12:16:54;;;;;;;3.97;3.10;;;7.00;99.90;;;;;;5133619;27;20043;-71
2021/12/24 12:19:25;;;;;;;3.67;3.05;;;7.00;99.90;;;;;;5134024;27;20493;-72
2021/12/24 12:25:06;;;;;;;3.47;3.10;;;6.90;99.90;;;;;;5126505;27;20687;-71
2021/12/24 12:27:58;;;;;;;4.20;3.47;;;6.80;99.90;;;;;;5144060;27;20051;-70
2021/12/24 12:30:37;;;;;;;4.00;3.10;;;6.90;99.90;;;;;;5107978;28;20100;-71
2021/12/24 12:33:10;;;;;;;3.30;2.63;;;6.90;99.90;;;;;;5114444;27;20039;-70
2021/12/24 12:35:49;;;;;;;3.30;2.90;;;6.80;99.90;;;;;;5123757;27;20089;-71
2021/12/24 12:38:31;;;;;;;4.32;2.80;;;6.80;99.90;;;;;;5116551;27;20043;-71
2021/12/24 12:41:23;;;;;;;3.85;3.20;;;6.80;99.90;;;;;;5126785;27;20047;-71
2021/12/24 12:43:50;;;;;;;3.35;2.67;;;6.80;99.90;;;;;;5103153;28;20577;-70
2021/12/24 12:46:26;;;;;;;4.35;3.10;;;6.80;99.90;;;;;;5119015;27;20054;-70
2021/12/24 12:48:54;;;;;;;3.90;3.13;;;6.90;99.90;;;;;;5112252;27;20054;-70
2021/12/24 12:51:21;;;;;;;;;;;6.90;99.90;;;;;;5124550;27;20107;-70
2021/12/24 12:53:48;;;;;;;5.15;3.47;;;6.80;99.90;;;;;;5157974;27;20386;-70
2021/12/24 12:56:22;;;;;;;4.13;3.22;;;6.90;99.90;;;;;;5140255;27;20031;-70
2021/12/24 12:58:57;;;;;;;3.92;3.40;;;6.90;99.90;;;;;;5137245;27;20078;-70
2021/12/24 13:01:23;;;;;;;3.95;3.00;;;6.90;99.90;;;;;;5120329;27;20043;-70
2021/12/24 13:03:55;;;;;;;5.07;2.88;;;6.90;99.90;;;;;;5117211;27;20152;-70
2021/12/24 13:06:25;;;;;;;3.28;2.60;;;6.90;99.90;;;;;;5120857;27;20391;-71
2021/12/24 13:08:51;;;;;;;3.40;2.45;;;6.90;99.90;;;;;;5125938;27;20505;-70
2021/12/24 13:11:20;;;;;;;3.42;2.80;;;6.80;99.90;;;;;;5122336;27;20035;-69
2021/12/24 13:13:51;;;;;;;4.03;3.00;;;6.80;99.90;;;;;;5122717;27;20558;-70
2021/12/24 13:16:19;;;;;;;3.20;2.67;;;6.70;99.90;;;;;;5125119;27;20044;-70
2021/12/24 13:18:54;;;;;;;3.10;2.72;;;6.70;99.90;;;;;;5120055;27;20048;-70
2021/12/24 13:24:12;;;;;;;3.95;3.30;;;6.70;99.90;;;;;;5121208;27;20444;-70
2021/12/24 13:26:38;;;;;;;3.50;3.13;;;6.60;99.90;;;;;;5112896;27;20045;-70
2021/12/24 13:29:16;;;;;;;3.97;3.55;;;6.70;99.90;;;;;;5118871;27;20038;-70
2021/12/24 13:31:54;;;;;;;3.58;3.17;;;6.70;99.90;;;;;;5120201;27;20035;-70
2021/12/24 13:34:20;;;;;;;3.63;3.30;;;6.70;99.90;;;;;;5118572;27;20031;-70
2021/12/24 13:36:46;;;;;;;3.93;3.47;;;6.70;99.90;;;;;;5116999;27;20429;-70
2021/12/24 13:39:19;;;;;;;5.18;3.92;;;6.60;99.90;;;;;;5116895;27;20376;-70
2021/12/24 13:41:46;;;;;;;5.35;3.88;;;6.70;99.90;;;;;;5140517;27;20089;-70
2021/12/24 13:44:23;;;;;;;5.18;4.07;;;6.70;99.90;;;;;;5116661;27;20058;-71
2021/12/24 13:47:07;;;;;;;5.95;4.85;;;6.70;99.90;;;;;;5126438;27;20050;-70
2021/12/24 13:54:49;;;;;;;4.80;4.30;;;6.70;99.90;;;;;;5116519;27;20039;-71
2021/12/24 13:57:17;;;;;;;5.60;4.20;;;6.70;99.90;;;;;;5109179;27;20489;-70
2021/12/24 13:59:42;;;;;;;4.57;4.10;;;6.70;99.90;;;;;;5115593;27;20043;-69
2021/12/24 14:02:11;;;;;;;4.70;3.90;;;6.70;99.90;;;;;;5117996;27;20135;-69
2021/12/24 14:04:36;;;;;;;4.90;3.80;;;6.70;99.90;;;;;;5126504;27;20035;-69
2021/12/24 14:07:02;;;;;;;4.78;4.13;;;6.70;99.90;;;;;;5129404;27;20461;-69
2021/12/24 14:09:33;;;;;;;5.25;4.32;;;6.70;99.90;;;;;;5118435;27;20035;-68
2021/12/24 14:12:02;;;;;;;4.82;4.32;;;6.70;99.90;;;;;;5141166;27;20066;-72
2021/12/24 14:14:45;;;;;;;5.07;4.45;;;6.70;99.90;;;;;;5114883;27;20402;-71
2021/12/24 14:22:23;;;;;;;5.65;4.68;;;6.70;99.90;;;;;;5124166;27;20201;-70
2021/12/24 14:25:13;;;;;;;6.03;5.13;;;6.70;99.90;;;;;;5109859;28;20117;-72
2021/12/24 14:27:44;;;;;;;5.45;4.95;;;6.70;99.90;;;;;;5106496;28;20506;-69
2021/12/24 14:30:15;;;;;;;6.35;5.30;;;6.70;99.90;;;;;;5160918;27;20043;-72
2021/12/24 14:32:44;;;;;;;5.95;4.95;;;6.70;99.90;;;;;;5126820;28;20450;-70
2021/12/24 14:35:14;;;;;;;5.60;5.10;;;6.70;99.90;;;;;;5126041;27;20062;-70
2021/12/24 14:37:41;;;;;;;7.03;5.82;;;6.70;99.90;;;;;;5116405;28;20040;-69
2021/12/24 14:40:06;;;;;;;6.03;5.38;;;6.70;99.90;;;;;;5110122;28;20529;-72
2021/12/24 14:42:49;;;;;;;6.82;5.60;;;6.70;99.90;;;;;;5123449;27;20078;-70
2021/12/24 14:45:23;;;;;;;6.85;6.18;;;6.70;99.90;;;;;;5146092;27;20089;-70
2021/12/24 14:47:57;;;;;;;6.43;5.65;;;6.70;99.90;;;;;;5114289;28;20734;-70